sensor_id;sensor_type;location;lat;lon;timestamp;P1;durP1;ratioP1;P2;durP2;ratioP2
15528;SDS011;7866;52.280;9.500;2024-02-21T00:00:32;19.53;;;11.57;;
15528;SDS011;7866;52.280;9.500;2024-02-21T00:05:33;17.20;;;10.80;;
15528;SDS011;7866;52.280;9.500;2024-02-21T00:10:36;17.07;;;10.37;;
15528;SDS011;7866;52.280;9.500;2024-02-21T00:15:38;19.07;;;11.60;;
15528;SDS011;7866;52.280;9.500;2024-02-21T00:20:40;19.00;;;10.93;;
15528;SDS011;7866;52.280;9.500;2024-02-21T00:25:43;18.73;;;11.67;;
15528;SDS011;7866;52.280;9.500;2024-02-21T00:30:44;19.80;;;12.40;;
15528;SDS011;7866;52.280;9.500;2024-02-21T00:35:50;20.53;;;13.33;;
15528;SDS011;7866;52.280;9.500;2024-02-21T00:40:53;17.30;;;12.70;;
15528;SDS011;7866;52.280;9.500;2024-02-21T00:45:54;18.40;;;12.47;;
15528;SDS011;7866;52.280;9.500;2024-02-21T00:50:56;18.53;;;12.30;;
15528;SDS011;7866;52.280;9.500;2024-02-21T00:55:59;23.20;;;13.47;;
15528;SDS011;7866;52.280;9.500;2024-02-21T01:01:01;20.37;;;12.20;;
15528;SDS011;7866;52.280;9.500;2024-02-21T01:06:03;23.07;;;13.37;;
15528;SDS011;7866;52.280;9.500;2024-02-21T01:11:08;19.30;;;12.30;;
15528;SDS011;7866;52.280;9.500;2024-02-21T01:16:09;17.73;;;11.67;;
15528;SDS011;7866;52.280;9.500;2024-02-21T01:21:11;19.93;;;12.37;;
15528;SDS011;7866;52.280;9.500;2024-02-21T01:26:14;21.47;;;13.33;;
15528;SDS011;7866;52.280;9.500;2024-02-21T01:31:15;17.93;;;11.73;;
15528;SDS011;7866;52.280;9.500;2024-02-21T01:36:17;21.07;;;12.67;;
15528;SDS011;7866;52.280;9.500;2024-02-21T01:41:20;19.43;;;12.83;;
15528;SDS011;7866;52.280;9.500;2024-02-21T01:46:22;18.67;;;12.30;;
15528;SDS011;7866;52.280;9.500;2024-02-21T01:51:27;18.70;;;12.83;;
15528;SDS011;7866;52.280;9.500;2024-02-21T01:56:30;23.17;;;13.67;;
15528;SDS011;7866;52.280;9.500;2024-02-21T02:01:33;16.67;;;12.73;;
15528;SDS011;7866;52.280;9.500;2024-02-21T02:06:34;19.40;;;13.50;;
15528;SDS011;7866;52.280;9.500;2024-02-21T02:11:37;17.40;;;12.20;;
15528;SDS011;7866;52.280;9.500;2024-02-21T02:16:39;17.57;;;12.63;;
15528;SDS011;7866;52.280;9.500;2024-02-21T02:21:43;19.53;;;12.80;;
15528;SDS011;7866;52.280;9.500;2024-02-21T02:26:54;19.43;;;13.07;;
15528;SDS011;7866;52.280;9.500;2024-02-21T02:31:56;18.13;;;12.80;;
15528;SDS011;7866;52.280;9.500;2024-02-21T02:36:57;18.77;;;13.13;;
15528;SDS011;7866;52.280;9.500;2024-02-21T02:42:01;20.97;;;13.33;;
15528;SDS011;7866;52.280;9.500;2024-02-21T02:47:03;17.43;;;12.40;;
15528;SDS011;7866;52.280;9.500;2024-02-21T02:52:05;16.40;;;11.70;;
15528;SDS011;7866;52.280;9.500;2024-02-21T02:57:08;15.80;;;11.90;;
15528;SDS011;7866;52.280;9.500;2024-02-21T03:02:09;17.60;;;12.27;;
15528;SDS011;7866;52.280;9.500;2024-02-21T03:07:11;20.47;;;12.60;;
15528;SDS011;7866;52.280;9.500;2024-02-21T03:12:14;19.13;;;11.27;;
15528;SDS011;7866;52.280;9.500;2024-02-21T03:17:24;18.67;;;12.50;;
15528;SDS011;7866;52.280;9.500;2024-02-21T03:22:27;17.47;;;11.73;;
15528;SDS011;7866;52.280;9.500;2024-02-21T03:27:30;19.77;;;12.30;;
15528;SDS011;7866;52.280;9.500;2024-02-21T03:32:31;16.67;;;12.80;;
15528;SDS011;7866;52.280;9.500;2024-02-21T03:37:33;17.13;;;12.30;;
15528;SDS011;7866;52.280;9.500;2024-02-21T03:42:36;17.40;;;13.27;;
15528;SDS011;7866;52.280;9.500;2024-02-21T03:47:38;19.70;;;13.07;;
15528;SDS011;7866;52.280;9.500;2024-02-21T03:52:39;18.23;;;12.70;;
15528;SDS011;7866;52.280;9.500;2024-02-21T03:57:42;23.53;;;13.43;;
15528;SDS011;7866;52.280;9.500;2024-02-21T04:02:44;20.83;;;13.80;;
15528;SDS011;7866;52.280;9.500;2024-02-21T04:07:46;19.60;;;13.87;;
15528;SDS011;7866;52.280;9.500;2024-02-21T04:12:48;21.97;;;13.40;;
15528;SDS011;7866;52.280;9.500;2024-02-21T04:17:50;20.77;;;13.00;;
15528;SDS011;7866;52.280;9.500;2024-02-21T04:22:53;17.53;;;13.93;;
15528;SDS011;7866;52.280;9.500;2024-02-21T04:27:59;22.20;;;13.63;;
15528;SDS011;7866;52.280;9.500;2024-02-21T04:33:00;17.20;;;13.00;;
15528;SDS011;7866;52.280;9.500;2024-02-21T04:38:02;20.43;;;14.07;;
15528;SDS011;7866;52.280;9.500;2024-02-21T04:43:05;19.63;;;13.43;;
15528;SDS011;7866;52.280;9.500;2024-02-21T04:48:07;16.87;;;12.47;;
15528;SDS011;7866;52.280;9.500;2024-02-21T04:53:08;21.67;;;13.33;;
15528;SDS011;7866;52.280;9.500;2024-02-21T04:58:11;16.80;;;12.57;;
15528;SDS011;7866;52.280;9.500;2024-02-21T05:03:13;18.10;;;13.00;;
15528;SDS011;7866;52.280;9.500;2024-02-21T05:08:15;19.53;;;12.70;;
15528;SDS011;7866;52.280;9.500;2024-02-21T05:13:18;17.57;;;12.60;;
15528;SDS011;7866;52.280;9.500;2024-02-21T05:18:19;17.07;;;13.70;;
15528;SDS011;7866;52.280;9.500;2024-02-21T05:23:21;20.50;;;13.77;;
15528;SDS011;7866;52.280;9.500;2024-02-21T05:28:24;19.13;;;13.57;;
15528;SDS011;7866;52.280;9.500;2024-02-21T05:33:26;15.10;;;12.13;;
15528;SDS011;7866;52.280;9.500;2024-02-21T05:38:27;15.60;;;12.43;;
15528;SDS011;7866;52.280;9.500;2024-02-21T05:43:30;18.90;;;13.57;;
15528;SDS011;7866;52.280;9.500;2024-02-21T05:48:32;19.27;;;14.27;;
15528;SDS011;7866;52.280;9.500;2024-02-21T05:53:34;17.57;;;12.60;;
15528;SDS011;7866;52.280;9.500;2024-02-21T05:58:37;15.93;;;12.67;;
15528;SDS011;7866;52.280;9.500;2024-02-21T06:03:39;15.10;;;12.17;;
15528;SDS011;7866;52.280;9.500;2024-02-21T06:08:41;17.20;;;12.73;;
15528;SDS011;7866;52.280;9.500;2024-02-21T06:13:44;17.17;;;13.13;;
15528;SDS011;7866;52.280;9.500;2024-02-21T06:18:45;14.30;;;12.10;;
15528;SDS011;7866;52.280;9.500;2024-02-21T06:23:47;14.07;;;12.33;;
15528;SDS011;7866;52.280;9.500;2024-02-21T06:28:50;15.83;;;13.47;;
15528;SDS011;7866;52.280;9.500;2024-02-21T06:33:52;16.93;;;12.23;;
15528;SDS011;7866;52.280;9.500;2024-02-21T06:38:53;16.90;;;12.73;;
15528;SDS011;7866;52.280;9.500;2024-02-21T06:43:57;15.60;;;11.57;;
15528;SDS011;7866;52.280;9.500;2024-02-21T06:49:00;14.87;;;10.60;;
15528;SDS011;7866;52.280;9.500;2024-02-21T06:54:03;16.03;;;12.03;;
15528;SDS011;7866;52.280;9.500;2024-02-21T06:59:06;16.47;;;11.83;;
15528;SDS011;7866;52.280;9.500;2024-02-21T07:04:08;14.07;;;11.70;;
15528;SDS011;7866;52.280;9.500;2024-02-21T07:09:09;15.30;;;11.83;;
15528;SDS011;7866;52.280;9.500;2024-02-21T07:14:13;15.10;;;10.60;;
15528;SDS011;7866;52.280;9.500;2024-02-21T07:19:15;13.80;;;10.30;;
15528;SDS011;7866;52.280;9.500;2024-02-21T07:24:17;14.37;;;9.27;;
15528;SDS011;7866;52.280;9.500;2024-02-21T07:29:20;13.27;;;9.67;;
15528;SDS011;7866;52.280;9.500;2024-02-21T07:34:21;12.33;;;8.93;;
15528;SDS011;7866;52.280;9.500;2024-02-21T07:39:23;13.53;;;10.37;;
15528;SDS011;7866;52.280;9.500;2024-02-21T07:44:26;14.03;;;9.97;;
15528;SDS011;7866;52.280;9.500;2024-02-21T07:49:28;14.13;;;9.97;;
15528;SDS011;7866;52.280;9.500;2024-02-21T07:54:29;14.73;;;10.40;;
15528;SDS011;7866;52.280;9.500;2024-02-21T07:59:32;13.20;;;9.43;;
15528;SDS011;7866;52.280;9.500;2024-02-21T08:04:34;16.80;;;10.57;;
15528;SDS011;7866;52.280;9.500;2024-02-21T08:09:36;15.70;;;8.93;;
15528;SDS011;7866;52.280;9.500;2024-02-21T08:14:39;11.80;;;8.87;;
15528;SDS011;7866;52.280;9.500;2024-02-21T08:19:41;13.03;;;9.43;;
15528;SDS011;7866;52.280;9.500;2024-02-21T08:24:43;11.73;;;8.47;;
15528;SDS011;7866;52.280;9.500;2024-02-21T08:29:46;10.83;;;8.00;;
15528;SDS011;7866;52.280;9.500;2024-02-21T08:34:48;11.13;;;7.17;;
15528;SDS011;7866;52.280;9.500;2024-02-21T08:39:50;12.87;;;7.53;;
15528;SDS011;7866;52.280;9.500;2024-02-21T08:44:53;12.37;;;7.23;;
15528;SDS011;7866;52.280;9.500;2024-02-21T08:49:55;9.37;;;7.13;;
15528;SDS011;7866;52.280;9.500;2024-02-21T08:54:56;10.47;;;7.30;;
15528;SDS011;7866;52.280;9.500;2024-02-21T08:59:59;8.57;;;5.90;;
15528;SDS011;7866;52.280;9.500;2024-02-21T09:05:01;11.50;;;6.07;;
15528;SDS011;7866;52.280;9.500;2024-02-21T09:10:05;11.57;;;6.30;;
15528;SDS011;7866;52.280;9.500;2024-02-21T09:15:09;10.33;;;6.37;;
15528;SDS011;7866;52.280;9.500;2024-02-21T09:20:11;9.03;;;5.37;;
15528;SDS011;7866;52.280;9.500;2024-02-21T09:25:16;9.30;;;6.93;;
15528;SDS011;7866;52.280;9.500;2024-02-21T09:30:19;10.23;;;5.93;;
15528;SDS011;7866;52.280;9.500;2024-02-21T09:35:21;7.13;;;5.20;;
15528;SDS011;7866;52.280;9.500;2024-02-21T09:40:23;7.73;;;5.10;;
15528;SDS011;7866;52.280;9.500;2024-02-21T09:45:28;8.03;;;4.77;;
15528;SDS011;7866;52.280;9.500;2024-02-21T09:50:30;7.13;;;5.40;;
15528;SDS011;7866;52.280;9.500;2024-02-21T09:55:33;5.40;;;4.33;;
15528;SDS011;7866;52.280;9.500;2024-02-21T10:00:41;8.77;;;4.50;;
15528;SDS011;7866;52.280;9.500;2024-02-21T10:05:46;7.63;;;4.70;;
15528;SDS011;7866;52.280;9.500;2024-02-21T10:10:50;7.37;;;4.23;;
15528;SDS011;7866;52.280;9.500;2024-02-21T10:16:04;6.53;;;3.87;;
15528;SDS011;7866;52.280;9.500;2024-02-21T10:21:07;8.73;;;3.70;;
15528;SDS011;7866;52.280;9.500;2024-02-21T10:26:09;5.97;;;3.47;;
15528;SDS011;7866;52.280;9.500;2024-02-21T10:31:21;4.73;;;2.70;;
15528;SDS011;7866;52.280;9.500;2024-02-21T10:36:24;5.57;;;3.00;;
15528;SDS011;7866;52.280;9.500;2024-02-21T10:41:26;7.17;;;3.10;;
15528;SDS011;7866;52.280;9.500;2024-02-21T10:46:29;5.67;;;2.80;;
15528;SDS011;7866;52.280;9.500;2024-02-21T10:51:35;3.63;;;2.73;;
15528;SDS011;7866;52.280;9.500;2024-02-21T10:56:43;6.33;;;3.30;;
15528;SDS011;7866;52.280;9.500;2024-02-21T11:01:47;9.03;;;3.37;;
15528;SDS011;7866;52.280;9.500;2024-02-21T11:06:49;4.57;;;2.90;;
15528;SDS011;7866;52.280;9.500;2024-02-21T11:11:51;5.07;;;2.63;;
15528;SDS011;7866;52.280;9.500;2024-02-21T11:16:54;4.10;;;2.63;;
15528;SDS011;7866;52.280;9.500;2024-02-21T11:21:57;5.00;;;2.90;;
15528;SDS011;7866;52.280;9.500;2024-02-21T11:32:22;4.50;;;2.87;;
15528;SDS011;7866;52.280;9.500;2024-02-21T11:37:24;4.77;;;2.80;;
15528;SDS011;7866;52.280;9.500;2024-02-21T11:42:27;4.97;;;2.70;;
15528;SDS011;7866;52.280;9.500;2024-02-21T11:47:31;4.13;;;2.70;;
15528;SDS011;7866;52.280;9.500;2024-02-21T11:52:33;3.93;;;3.13;;
15528;SDS011;7866;52.280;9.500;2024-02-21T11:57:34;4.97;;;3.23;;
15528;SDS011;7866;52.280;9.500;2024-02-21T12:02:42;4.87;;;3.30;;
15528;SDS011;7866;52.280;9.500;2024-02-21T12:07:45;6.23;;;3.37;;
15528;SDS011;7866;52.280;9.500;2024-02-21T12:12:47;5.40;;;3.60;;
15528;SDS011;7866;52.280;9.500;2024-02-21T12:17:50;7.03;;;3.40;;
15528;SDS011;7866;52.280;9.500;2024-02-21T12:22:52;5.67;;;3.97;;
15528;SDS011;7866;52.280;9.500;2024-02-21T12:27:54;6.80;;;5.13;;
15528;SDS011;7866;52.280;9.500;2024-02-21T12:32:58;9.27;;;5.80;;
15528;SDS011;7866;52.280;9.500;2024-02-21T12:38:01;7.27;;;5.60;;
15528;SDS011;7866;52.280;9.500;2024-02-21T12:43:04;6.00;;;5.40;;
15528;SDS011;7866;52.280;9.500;2024-02-21T12:48:08;7.93;;;5.90;;
15528;SDS011;7866;52.280;9.500;2024-02-21T12:53:09;7.13;;;5.40;;
15528;SDS011;7866;52.280;9.500;2024-02-21T12:58:11;6.70;;;5.27;;
15528;SDS011;7866;52.280;9.500;2024-02-21T13:03:15;5.73;;;4.13;;
15528;SDS011;7866;52.280;9.500;2024-02-21T13:08:16;5.63;;;3.97;;
15528;SDS011;7866;52.280;9.500;2024-02-21T13:13:21;5.63;;;4.00;;
15528;SDS011;7866;52.280;9.500;2024-02-21T13:18:24;6.27;;;3.70;;
15528;SDS011;7866;52.280;9.500;2024-02-21T13:23:25;6.27;;;3.87;;
15528;SDS011;7866;52.280;9.500;2024-02-21T13:28:27;4.67;;;3.27;;
15528;SDS011;7866;52.280;9.500;2024-02-21T13:33:30;5.27;;;2.63;;
15528;SDS011;7866;52.280;9.500;2024-02-21T13:38:32;2.87;;;2.40;;
15528;SDS011;7866;52.280;9.500;2024-02-21T13:43:33;3.47;;;2.47;;
15528;SDS011;7866;52.280;9.500;2024-02-21T13:48:36;2.67;;;2.20;;
15528;SDS011;7866;52.280;9.500;2024-02-21T13:53:38;4.10;;;2.50;;
15528;SDS011;7866;52.280;9.500;2024-02-21T13:58:39;3.83;;;2.00;;
15528;SDS011;7866;52.280;9.500;2024-02-21T14:03:42;3.33;;;1.90;;
15528;SDS011;7866;52.280;9.500;2024-02-21T14:08:44;2.13;;;1.97;;
15528;SDS011;7866;52.280;9.500;2024-02-21T14:13:46;2.63;;;2.23;;
15528;SDS011;7866;52.280;9.500;2024-02-21T14:18:49;5.07;;;2.00;;
15528;SDS011;7866;52.280;9.500;2024-02-21T14:23:50;3.60;;;2.17;;
15528;SDS011;7866;52.280;9.500;2024-02-21T14:28:52;5.53;;;2.20;;
15528;SDS011;7866;52.280;9.500;2024-02-21T14:33:55;4.43;;;2.17;;
15528;SDS011;7866;52.280;9.500;2024-02-21T14:38:57;5.00;;;2.07;;
15528;SDS011;7866;52.280;9.500;2024-02-21T14:43:59;4.60;;;2.43;;
15528;SDS011;7866;52.280;9.500;2024-02-21T14:49:03;5.83;;;2.63;;
15528;SDS011;7866;52.280;9.500;2024-02-21T14:54:05;7.80;;;2.73;;
15528;SDS011;7866;52.280;9.500;2024-02-21T14:59:06;5.70;;;2.77;;
15528;SDS011;7866;52.280;9.500;2024-02-21T15:04:09;5.57;;;2.93;;
15528;SDS011;7866;52.280;9.500;2024-02-21T15:09:11;5.87;;;2.90;;
15528;SDS011;7866;52.280;9.500;2024-02-21T15:14:12;5.40;;;2.87;;
15528;SDS011;7866;52.280;9.500;2024-02-21T15:19:15;6.50;;;3.23;;
15528;SDS011;7866;52.280;9.500;2024-02-21T15:24:17;4.43;;;2.50;;
15528;SDS011;7866;52.280;9.500;2024-02-21T15:29:19;5.47;;;2.70;;
15528;SDS011;7866;52.280;9.500;2024-02-21T15:34:22;5.80;;;2.70;;
15528;SDS011;7866;52.280;9.500;2024-02-21T15:39:23;4.83;;;2.60;;
15528;SDS011;7866;52.280;9.500;2024-02-21T15:44:26;7.57;;;2.60;;
15528;SDS011;7866;52.280;9.500;2024-02-21T15:49:29;5.77;;;2.30;;
15528;SDS011;7866;52.280;9.500;2024-02-21T15:54:31;5.07;;;2.77;;
15528;SDS011;7866;52.280;9.500;2024-02-21T15:59:33;7.00;;;3.10;;
15528;SDS011;7866;52.280;9.500;2024-02-21T16:04:36;7.10;;;2.90;;
15528;SDS011;7866;52.280;9.500;2024-02-21T16:09:38;3.90;;;2.50;;
15528;SDS011;7866;52.280;9.500;2024-02-21T16:14:44;5.77;;;2.90;;
15528;SDS011;7866;52.280;9.500;2024-02-21T16:19:49;9.47;;;3.17;;
15528;SDS011;7866;52.280;9.500;2024-02-21T16:24:50;7.00;;;2.90;;
15528;SDS011;7866;52.280;9.500;2024-02-21T16:29:53;7.70;;;3.50;;
15528;SDS011;7866;52.280;9.500;2024-02-21T16:34:56;5.87;;;2.97;;
15528;SDS011;7866;52.280;9.500;2024-02-21T16:39:58;5.40;;;2.73;;
15528;SDS011;7866;52.280;9.500;2024-02-21T16:45:01;6.63;;;2.33;;
15528;SDS011;7866;52.280;9.500;2024-02-21T16:50:07;6.57;;;3.00;;
15528;SDS011;7866;52.280;9.500;2024-02-21T16:55:09;5.73;;;2.70;;
15528;SDS011;7866;52.280;9.500;2024-02-21T17:00:11;8.43;;;2.80;;
15528;SDS011;7866;52.280;9.500;2024-02-21T17:05:14;8.60;;;3.00;;
15528;SDS011;7866;52.280;9.500;2024-02-21T17:10:16;6.53;;;2.50;;
15528;SDS011;7866;52.280;9.500;2024-02-21T17:15:18;3.97;;;2.30;;
15528;SDS011;7866;52.280;9.500;2024-02-21T17:20:21;5.33;;;2.70;;
15528;SDS011;7866;52.280;9.500;2024-02-21T17:25:23;5.87;;;2.90;;
15528;SDS011;7866;52.280;9.500;2024-02-21T17:30:25;6.57;;;3.60;;
15528;SDS011;7866;52.280;9.500;2024-02-21T17:35:28;5.13;;;2.90;;
15528;SDS011;7866;52.280;9.500;2024-02-21T17:40:30;5.97;;;3.20;;
15528;SDS011;7866;52.280;9.500;2024-02-21T17:45:32;5.50;;;3.27;;
15528;SDS011;7866;52.280;9.500;2024-02-21T17:50:35;7.43;;;3.80;;
15528;SDS011;7866;52.280;9.500;2024-02-21T17:55:36;8.37;;;3.20;;
15528;SDS011;7866;52.280;9.500;2024-02-21T18:00:38;5.23;;;3.50;;
15528;SDS011;7866;52.280;9.500;2024-02-21T18:05:45;6.67;;;3.80;;
15528;SDS011;7866;52.280;9.500;2024-02-21T18:10:48;7.93;;;3.77;;
15528;SDS011;7866;52.280;9.500;2024-02-21T18:15:50;4.50;;;3.47;;
15528;SDS011;7866;52.280;9.500;2024-02-21T18:20:53;8.73;;;3.43;;
15528;SDS011;7866;52.280;9.500;2024-02-21T18:25:54;7.87;;;4.20;;
15528;SDS011;7866;52.280;9.500;2024-02-21T18:30:56;8.43;;;3.90;;
15528;SDS011;7866;52.280;9.500;2024-02-21T18:35:59;7.43;;;3.57;;
15528;SDS011;7866;52.280;9.500;2024-02-21T18:41:01;5.87;;;3.83;;
15528;SDS011;7866;52.280;9.500;2024-02-21T18:46:03;6.93;;;3.53;;
15528;SDS011;7866;52.280;9.500;2024-02-21T18:51:06;7.67;;;3.93;;
15528;SDS011;7866;52.280;9.500;2024-02-21T18:56:08;7.73;;;5.40;;
15528;SDS011;7866;52.280;9.500;2024-02-21T19:01:10;9.83;;;6.43;;
15528;SDS011;7866;52.280;9.500;2024-02-21T19:06:12;6.07;;;3.90;;
15528;SDS011;7866;52.280;9.500;2024-02-21T19:11:15;8.97;;;3.77;;
15528;SDS011;7866;52.280;9.500;2024-02-21T19:16:16;6.47;;;3.70;;
15528;SDS011;7866;52.280;9.500;2024-02-21T19:21:19;8.17;;;3.20;;
15528;SDS011;7866;52.280;9.500;2024-02-21T19:26:21;8.30;;;3.40;;
15528;SDS011;7866;52.280;9.500;2024-02-21T19:31:23;6.63;;;3.27;;
15528;SDS011;7866;52.280;9.500;2024-02-21T19:36:26;7.13;;;3.20;;
15528;SDS011;7866;52.280;9.500;2024-02-21T19:41:27;5.40;;;3.27;;
15528;SDS011;7866;52.280;9.500;2024-02-21T19:46:30;10.37;;;3.33;;
15528;SDS011;7866;52.280;9.500;2024-02-21T19:51:33;4.47;;;3.10;;
15528;SDS011;7866;52.280;9.500;2024-02-21T19:56:34;7.80;;;2.97;;
15528;SDS011;7866;52.280;9.500;2024-02-21T20:01:36;6.90;;;3.03;;
15528;SDS011;7866;52.280;9.500;2024-02-21T20:06:41;7.80;;;3.07;;
15528;SDS011;7866;52.280;9.500;2024-02-21T20:11:43;6.70;;;3.13;;
15528;SDS011;7866;52.280;9.500;2024-02-21T20:16:45;5.87;;;3.00;;
15528;SDS011;7866;52.280;9.500;2024-02-21T20:21:50;4.50;;;2.80;;
15528;SDS011;7866;52.280;9.500;2024-02-21T20:26:53;7.37;;;3.20;;
15528;SDS011;7866;52.280;9.500;2024-02-21T20:31:55;5.03;;;2.70;;
15528;SDS011;7866;52.280;9.500;2024-02-21T20:37:00;5.97;;;2.70;;
15528;SDS011;7866;52.280;9.500;2024-02-21T20:42:05;4.97;;;2.97;;
15528;SDS011;7866;52.280;9.500;2024-02-21T20:47:07;6.93;;;3.03;;
15528;SDS011;7866;52.280;9.500;2024-02-21T20:52:10;5.33;;;2.77;;
15528;SDS011;7866;52.280;9.500;2024-02-21T20:57:11;4.17;;;2.60;;
15528;SDS011;7866;52.280;9.500;2024-02-21T21:02:13;6.00;;;2.50;;
15528;SDS011;7866;52.280;9.500;2024-02-21T21:07:16;5.30;;;2.70;;
15528;SDS011;7866;52.280;9.500;2024-02-21T21:12:17;6.57;;;2.83;;
15528;SDS011;7866;52.280;9.500;2024-02-21T21:17:19;4.47;;;2.30;;
15528;SDS011;7866;52.280;9.500;2024-02-21T21:22:22;7.30;;;2.60;;
15528;SDS011;7866;52.280;9.500;2024-02-21T21:27:24;4.37;;;2.47;;
15528;SDS011;7866;52.280;9.500;2024-02-21T21:32:26;6.37;;;2.60;;
15528;SDS011;7866;52.280;9.500;2024-02-21T21:37:31;4.50;;;2.73;;
15528;SDS011;7866;52.280;9.500;2024-02-21T21:42:33;3.80;;;2.30;;
15528;SDS011;7866;52.280;9.500;2024-02-21T21:47:34;4.97;;;2.73;;
15528;SDS011;7866;52.280;9.500;2024-02-21T21:52:37;5.87;;;2.33;;
15528;SDS011;7866;52.280;9.500;2024-02-21T21:57:40;5.83;;;2.60;;
15528;SDS011;7866;52.280;9.500;2024-02-21T22:02:41;3.43;;;2.40;;
15528;SDS011;7866;52.280;9.500;2024-02-21T22:07:48;5.07;;;2.83;;
15528;SDS011;7866;52.280;9.500;2024-02-21T22:12:50;4.50;;;2.47;;
15528;SDS011;7866;52.280;9.500;2024-02-21T22:17:52;6.00;;;2.23;;
15528;SDS011;7866;52.280;9.500;2024-02-21T22:22:55;5.10;;;2.70;;
15528;SDS011;7866;52.280;9.500;2024-02-21T22:27:56;3.53;;;2.23;;
15528;SDS011;7866;52.280;9.500;2024-02-21T22:32:58;4.87;;;2.00;;
15528;SDS011;7866;52.280;9.500;2024-02-21T22:38:01;3.00;;;2.00;;
15528;SDS011;7866;52.280;9.500;2024-02-21T22:43:03;2.77;;;2.00;;
15528;SDS011;7866;52.280;9.500;2024-02-21T22:48:06;4.07;;;2.03;;
15528;SDS011;7866;52.280;9.500;2024-02-21T22:53:09;3.93;;;2.50;;
15528;SDS011;7866;52.280;9.500;2024-02-21T22:58:11;3.70;;;2.40;;
15528;SDS011;7866;52.280;9.500;2024-02-21T23:03:12;5.13;;;2.23;;
15528;SDS011;7866;52.280;9.500;2024-02-21T23:08:16;3.47;;;2.27;;
15528;SDS011;7866;52.280;9.500;2024-02-21T23:13:18;4.07;;;2.37;;
15528;SDS011;7866;52.280;9.500;2024-02-21T23:18:20;5.53;;;2.53;;
15528;SDS011;7866;52.280;9.500;2024-02-21T23:23:23;4.97;;;2.40;;
15528;SDS011;7866;52.280;9.500;2024-02-21T23:28:24;4.93;;;2.47;;
15528;SDS011;7866;52.280;9.500;2024-02-21T23:33:26;6.47;;;2.60;;
15528;SDS011;7866;52.280;9.500;2024-02-21T23:38:35;4.47;;;2.50;;
15528;SDS011;7866;52.280;9.500;2024-02-21T23:43:39;3.73;;;2.30;;
15528;SDS011;7866;52.280;9.500;2024-02-21T23:48:41;3.57;;;2.30;;
15528;SDS011;7866;52.280;9.500;2024-02-21T23:53:44;3.43;;;2.67;;
15528;SDS011;7866;52.280;9.500;2024-02-21T23:58:46;3.60;;;2.70;;
